Time;durP1;ratioP1;P1;durP2;ratioP2;P2;SDS_P1;SDS_P2;PMS_P1;PMS_P2;Temp;Humidity;BMP_temperature;BMP_pressure;BME280_temperature;BME280_humidity;BME280_pressure;Samples;Min_cycle;Max_cycle;Signal;HPM_P1;HPM_P2
2023/12/20 00:03:27;;;;;;;;;;;10.90;62.40;;;9.61;63.20;100609.16;12243392;19;19926;-84
2023/12/20 00:07:28;;;;;;;;;;;10.90;62.40;;;9.58;63.28;100601.50;12248316;19;19923;-84
2023/12/20 00:11:30;;;;;;;;;;;10.90;62.40;;;9.43;63.21;100571.88;12244652;19;19923;-84
2023/12/20 00:15:32;;;;;;;;;;;10.90;62.50;;;9.61;63.08;100600.50;12247349;19;20294;-83
2023/12/20 00:19:33;;;;;;;;;;;10.90;62.40;;;9.59;63.01;100597.97;12245819;19;19930;-84
2023/12/20 00:23:35;;;;;;;;;;;10.90;62.40;;;9.58;63.06;100585.84;12246410;19;19922;-84
2023/12/20 00:27:36;;;;;;;;;;;10.90;62.30;;;9.53;63.22;100569.63;12246165;19;19926;-84
2023/12/20 00:31:38;;;;;;;;;;;10.90;62.30;;;9.59;63.16;100579.75;12243011;19;19933;-84
2023/12/20 00:35:40;;;;;;;;;;;10.90;62.40;;;9.61;63.27;100577.88;12246831;19;19935;-84
2023/12/20 00:39:42;;;;;;;;;;;10.90;62.40;;;9.58;63.29;100570.22;12245252;19;19923;-84
2023/12/20 00:43:44;;;;;;;;;;;10.90;62.40;;;9.48;63.21;100554.25;12246998;19;19914;-84
2023/12/20 00:47:46;;;;;;;;;;;10.90;62.40;;;9.61;63.25;100570.03;12244706;19;19935;-83
2023/12/20 00:51:50;;;;;;;;;;;11.00;62.50;;;9.60;63.14;100573.59;12243013;19;19923;-83
2023/12/20 00:55:52;;;;;;;;;;;10.90;62.50;;;9.57;63.28;100558.13;12244499;19;19927;-84
2023/12/20 00:59:53;;;;;;;;;;;10.90;62.50;;;9.57;63.17;100557.28;12242644;19;19925;-84
2023/12/20 01:03:55;;;;;;;;;;;10.90;62.50;;;9.52;63.11;100544.47;12243550;19;19947;-84
2023/12/20 01:07:57;;;;;;;;;;;10.90;62.50;;;9.63;63.32;100567.38;12244660;19;19911;-83
2023/12/20 01:11:58;;;;;;;;;;;10.90;62.40;;;9.55;63.28;100552.13;12242440;19;19922;-83
2023/12/20 01:16:01;;;;;;;;;;;10.90;62.50;;;9.59;63.18;100566.69;12250089;19;19919;-84
2023/12/20 01:20:03;;;;;;;;;;;10.90;62.50;;;9.49;63.33;100555.91;12253853;19;19980;-84
2023/12/20 01:24:05;;;;;;;;;;;10.90;62.50;;;9.58;63.32;100572.00;12256758;19;19911;-84
2023/12/20 01:28:06;;;;;;;;;;;10.90;62.70;;;9.54;63.32;100558.28;12255933;19;19944;-84
2023/12/20 01:32:08;;;;;;;;;;;10.90;62.60;;;9.50;63.18;100546.31;12252648;19;20611;-84
2023/12/20 01:36:09;;;;;;;;;;;10.90;62.60;;;9.45;63.13;100543.13;12254357;19;19926;-84
2023/12/20 01:40:11;;;;;;;;;;;10.80;62.50;;;9.53;63.17;100567.00;12253418;19;19923;-84
2023/12/20 01:44:12;;;;;;;;;;;10.90;62.70;;;9.57;63.32;100565.09;12256104;19;19982;-84
2023/12/20 01:48:15;;;;;;;;;;;10.80;62.50;;;9.47;63.25;100551.69;12256257;19;19918;-84
2023/12/20 01:52:17;;;;;;;;;;;10.90;62.70;;;9.35;63.15;100526.31;12250433;19;20333;-84
2023/12/20 01:56:19;;;;;;;;;;;10.90;62.60;;;9.45;63.40;100517.94;12257030;19;19929;-84
2023/12/20 02:00:23;;;;;;;;;;;10.80;62.50;;;9.47;63.29;100533.47;12251886;19;19948;-84
2023/12/20 02:04:25;;;;;;;;;;;10.80;62.70;;;9.49;63.41;100537.66;12253900;19;19928;-83
2023/12/20 02:08:27;;;;;;;;;;;10.90;62.70;;;9.46;63.42;100530.03;12254579;19;19949;-84
2023/12/20 02:12:28;;;;;;;;;;;10.80;62.60;;;9.49;63.36;100532.47;12250592;19;19915;-84
2023/12/20 02:16:30;;;;;;;;;;;10.90;62.70;;;9.51;63.29;100527.19;12253701;19;19925;-83
2023/12/20 02:20:32;;;;;;;;;;;10.90;62.70;;;9.50;63.29;100523.72;12252410;19;19915;-84
2023/12/20 02:24:33;;;;;;;;;;;10.80;62.70;;;9.56;63.43;100532.13;12248521;19;19921;-84
2023/12/20 02:28:35;;;;;;;;;;;10.80;62.70;;;9.56;63.22;100534.72;12249454;19;19942;-84
2023/12/20 02:32:37;;;;;;;;;;;10.90;62.70;;;9.40;63.39;100503.47;12249178;19;19930;-84
2023/12/20 02:36:39;;;;;;;;;;;10.90;62.80;;;9.33;63.28;100489.06;12252973;19;19922;-84
2023/12/20 02:40:40;;;;;;;;;;;10.80;62.70;;;9.40;63.37;100501.69;12250012;19;20264;-84
2023/12/20 02:44:42;;;;;;;;;;;10.90;62.70;;;9.50;63.21;100512.44;12250471;19;19982;-84
2023/12/20 02:48:44;;;;;;;;;;;10.90;62.70;;;9.44;63.40;100494.53;12247326;19;20272;-84
2023/12/20 02:52:46;;;;;;;;;;;10.90;62.70;;;9.57;63.42;100512.97;12245672;19;20521;-84
2023/12/20 02:56:48;;;;;;;;;;;10.90;62.70;;;9.59;63.35;100519.78;12250469;19;19930;-84
2023/12/20 03:00:50;;;;;;;;;;;10.90;62.70;;;9.56;63.19;100517.34;12247164;19;19942;-84
2023/12/20 03:04:52;;;;;;;;;;;10.90;62.70;;;9.40;63.37;100498.25;12249282;19;20344;-84
2023/12/20 03:08:53;;;;;;;;;;;10.90;62.70;;;9.43;63.30;100493.69;12249589;19;19938;-83
2023/12/20 03:12:54;;;;;;;;;;;10.90;62.80;;;9.65;63.40;100518.59;12246938;19;19975;-83
2023/12/20 03:16:55;;;;;;;;;;;11.00;62.80;;;9.65;63.29;100535.06;12248745;19;19932;-83
2023/12/20 03:20:57;;;;;;;;;;;11.00;62.90;;;9.67;63.46;100533.22;12248649;19;19907;-83
2023/12/20 03:24:58;;;;;;;;;;;11.00;62.80;;;9.62;63.50;100524.00;12248787;19;19940;-83
2023/12/20 03:29:00;;;;;;;;;;;11.00;62.80;;;9.69;63.49;100544.44;12250464;19;19931;-83
2023/12/20 03:33:01;;;;;;;;;;;11.00;62.80;;;9.67;63.25;100535.84;12246211;19;19922;-83
2023/12/20 03:37:03;;;;;;;;;;;11.00;62.90;;;9.60;63.44;100526.66;12249328;19;19918;-84
2023/12/20 03:41:05;;;;;;;;;;;11.00;62.90;;;9.41;63.43;100492.94;12248416;19;19926;-83
2023/12/20 03:45:07;;;;;;;;;;;11.00;62.90;;;9.62;63.36;100535.25;12247764;19;19915;-83
2023/12/20 03:49:08;;;;;;;;;;;11.00;63.00;;;9.68;63.38;100532.31;12247391;19;19930;-83
2023/12/20 03:53:10;;;;;;;;;;;11.00;63.00;;;9.73;63.42;100547.69;12248669;19;19923;-83
2023/12/20 03:57:12;;;;;;;;;;;11.00;63.00;;;9.74;63.48;100544.16;12249827;19;20427;-83
2023/12/20 04:01:13;;;;;;;;;;;11.10;63.00;;;9.79;63.39;100549.13;12244318;19;20242;-83
2023/12/20 04:05:15;;;;;;;;;;;11.10;63.00;;;9.71;63.31;100516.47;12248596;19;19939;-83
2023/12/20 04:09:16;;;;;;;;;;;11.10;62.90;;;9.71;63.48;100511.28;12248547;19;20229;-83
2023/12/20 04:13:18;;;;;;;;;;;11.10;62.90;;;9.73;63.37;100509.44;12248368;19;19919;-83
2023/12/20 04:17:22;;;;;;;;;;;11.10;62.90;;;9.81;63.38;100521.22;12248420;19;19927;-83
2023/12/20 04:21:24;;;;;;;;;;;11.10;62.70;;;9.79;63.32;100515.22;12245836;19;19918;-83
2023/12/20 04:25:25;;;;;;;;;;;11.10;62.70;;;9.57;63.26;100472.09;12247755;19;20234;-83
2023/12/20 04:29:27;;;;;;;;;;;11.10;62.70;;;9.81;63.27;100516.84;12245966;19;19966;-83
2023/12/20 04:33:29;;;;;;;;;;;11.10;62.60;;;9.81;63.35;100523.81;12246866;19;19919;-84
2023/12/20 04:37:31;;;;;;;;;;;11.10;62.50;;;9.78;63.39;100526.59;12247562;19;19919;-84
2023/12/20 04:41:32;;;;;;;;;;;11.10;62.50;;;9.75;63.43;100520.63;12244104;19;19970;-83
2023/12/20 04:45:34;;;;;;;;;;;11.00;62.40;;;9.80;63.40;100522.13;12246580;19;20007;-83
2023/12/20 04:49:36;;;;;;;;;;;11.10;62.50;;;9.79;63.37;100504.81;12249148;19;19960;-84
2023/12/20 04:53:37;;;;;;;;;;;11.10;62.40;;;9.60;63.32;100471.09;12256825;19;19919;-83
2023/12/20 04:57:38;;;;;;;;;;;11.10;62.40;;;9.75;63.41;100507.59;12258553;19;19960;-84
2023/12/20 05:01:40;;;;;;;;;;;11.10;62.30;;;9.77;63.43;100510.09;12253189;19;19919;-83
2023/12/20 05:05:41;;;;;;;;;;;11.10;62.30;;;9.58;63.36;100478.97;12257894;19;19974;-84
2023/12/20 05:09:43;;;;;;;;;;;11.10;62.20;;;9.77;63.37;100517.06;12255287;19;19998;-84
2023/12/20 05:13:45;;;;;;;;;;;11.10;62.10;;;9.70;63.28;100507.00;12256949;19;19919;-84
2023/12/20 05:17:46;;;;;;;;;;;11.10;62.10;;;9.67;63.35;100496.72;12256585;19;19919;-83
2023/12/20 05:21:47;;;;;;;;;;;11.10;62.10;;;9.71;63.28;100507.81;12252800;19;19930;-84
2023/12/20 05:25:49;;;;;;;;;;;11.00;62.00;;;9.50;63.39;100488.97;12252514;19;20338;-84
2023/12/20 05:29:50;;;;;;;;;;;11.00;62.00;;;9.66;63.33;100528.09;12253040;19;19923;-84
2023/12/20 05:33:51;;;;;;;;;;;11.00;62.00;;;9.56;63.32;100508.66;12253706;19;20336;-84
2023/12/20 05:37:53;;;;;;;;;;;11.00;62.00;;;9.56;63.30;100522.56;12256818;19;19974;-84
2023/12/20 05:41:54;;;;;;;;;;;10.90;61.90;;;9.49;63.24;100524.63;12252088;19;19926;-84
2023/12/20 05:45:56;;;;;;;;;;;10.90;62.00;;;9.46;63.38;100518.75;12256637;19;19932;-84
2023/12/20 05:49:57;;;;;;;;;;;10.80;61.80;;;9.41;63.42;100521.59;12255247;19;19932;-84
2023/12/20 05:53:59;;;;;;;;;;;10.80;61.90;;;9.33;63.50;100513.34;12256698;19;19919;-84
2023/12/20 05:58:00;;;;;;;;;;;10.70;61.80;;;9.14;63.45;100484.84;12254315;19;20325;-84
2023/12/20 06:02:03;;;;;;;;;;;10.70;61.90;;;9.34;63.30;100524.63;12249730;19;19947;-84
2023/12/20 06:06:08;;;;;;;;;;;10.70;61.80;;;9.31;63.33;100507.38;12256017;19;19911;-84
2023/12/20 06:10:10;;;;;;;;;;;10.60;61.60;;;9.24;63.43;100499.06;12254769;19;19914;-84
2023/12/20 06:14:11;;;;;;;;;;;10.60;61.60;;;9.23;63.34;100492.16;12251202;19;19918;-84
2023/12/20 06:18:13;;;;;;;;;;;10.60;61.50;;;9.11;63.27;100466.78;12251059;19;19938;-84
2023/12/20 06:22:15;;;;;;;;;;;10.50;61.50;;;9.09;63.44;100476.41;12250167;19;19938;-84
2023/12/20 06:26:17;;;;;;;;;;;10.50;61.40;;;9.16;63.31;100496.03;12252468;19;19930;-84
2023/12/20 06:30:19;;;;;;;;;;;10.40;61.40;;;9.08;63.29;100492.97;12251230;19;20249;-84
2023/12/20 06:34:20;;;;;;;;;;;10.40;61.40;;;9.06;63.30;100495.66;12252328;19;19943;-84
2023/12/20 06:38:22;;;;;;;;;;;10.40;61.40;;;9.07;63.27;100512.13;12250858;19;19938;-85
2023/12/20 06:42:24;;;;;;;;;;;10.40;61.40;;;9.02;63.30;100499.34;12249195;19;19942;-84
2023/12/20 06:46:26;;;;;;;;;;;10.30;61.30;;;9.03;63.21;100513.22;12251736;19;19915;-85
2023/12/20 06:50:28;;;;;;;;;;;10.30;61.30;;;8.97;63.15;100509.16;12249942;19;19914;-84
2023/12/20 06:54:29;;;;;;;;;;;10.30;61.30;;;8.87;63.17;100500.16;12250885;19;19942;-84
2023/12/20 06:58:30;;;;;;;;;;;10.20;61.20;;;8.91;63.25;100508.63;12251703;19;19922;-84
2023/12/20 07:02:32;;;;;;;;;;;10.20;61.20;;;8.88;63.20;100503.59;12244037;19;19915;-85
2023/12/20 07:06:33;;;;;;;;;;;10.40;61.40;;;8.79;63.24;100490.13;12252287;19;19919;-84
2023/12/20 07:10:34;;;;;;;;;;;10.10;61.10;;;8.81;63.29;100509.13;12247923;19;20275;-84
2023/12/20 07:14:36;;;;;;;;;;;10.10;61.10;;;8.75;63.14;100508.56;12249671;19;19934;-83
2023/12/20 07:18:37;;;;;;;;;;;10.00;61.00;;;8.70;63.36;100493.22;12251309;19;20238;-83
2023/12/20 07:22:39;;;;;;;;;;;10.00;61.10;;;8.64;63.34;100499.56;12246542;19;19923;-84
2023/12/20 07:26:41;;;;;;;;;;;10.00;61.20;;;8.61;63.22;100489.31;12248650;19;19918;-84
2023/12/20 07:30:42;;;;;;;;;;;9.90;61.20;;;8.37;63.31;100459.28;12249076;19;19932;-84
2023/12/20 07:34:44;;;;;;;;;;;9.90;61.30;;;8.53;63.38;100488.88;12249213;19;19919;-83
2023/12/20 07:38:45;;;;;;;;;;;9.90;61.40;;;8.43;63.38;100489.41;12248753;19;19925;-83
2023/12/20 07:42:47;;;;;;;;;;;9.90;61.40;;;8.44;63.31;100491.06;12249740;19;19934;-85
2023/12/20 07:46:49;;;;;;;;;;;9.80;61.40;;;8.27;63.34;100478.88;12248880;19;19934;-85
2023/12/20 07:50:52;;;;;;;;;;;9.80;61.50;;;8.44;63.37;100502.31;12246554;19;19919;-85
2023/12/20 07:54:54;;;;;;;;;;;10.00;61.80;;;8.26;63.53;100464.19;12249022;19;19925;-85
2023/12/20 07:58:56;;;;;;;;;;;9.80;61.80;;;8.40;63.58;100491.25;12247430;19;19960;-85
2023/12/20 08:02:57;;;;;;;;;;;9.80;61.90;;;8.45;63.37;100488.38;12245335;19;19930;-85
2023/12/20 08:06:58;;;;;;;;;;;9.80;61.80;;;8.46;63.37;100491.84;12251568;19;20268;-85
2023/12/20 08:11:00;;;;;;;;;;;9.80;61.80;;;8.47;63.35;100494.34;12246176;19;19915;-84
2023/12/20 08:15:02;;;;;;;;;;;9.80;61.80;;;8.46;63.40;100491.84;12244300;19;19918;-84
2023/12/20 08:19:04;;;;;;;;;;;9.80;61.80;;;8.32;63.39;100467.34;12246406;19;19922;-84
2023/12/20 08:23:05;;;;;;;;;;;9.80;61.90;;;8.51;63.63;100497.66;12246878;19;19914;-83
2023/12/20 08:27:07;;;;;;;;;;;9.80;61.90;;;8.42;63.50;100483.34;12241818;19;20345;-85
2023/12/20 08:31:13;;;;;;;;;;;9.80;61.90;;;8.50;63.64;100491.59;12240124;19;19982;-84
2023/12/20 08:35:15;;;;;;;;;;;9.80;61.80;;;8.40;63.53;100467.81;12242804;19;20257;-84
2023/12/20 08:39:17;;;;;;;;;;;9.80;61.80;;;8.18;63.45;100442.00;12245061;19;20239;-83
2023/12/20 08:43:19;;;;;;;;;;;9.80;61.80;;;8.39;63.43;100473.91;12243514;19;19915;-85
2023/12/20 08:47:20;;;;;;;;;;;9.80;61.90;;;8.27;63.62;100448.50;12244242;19;20326;-84
2023/12/20 08:51:23;;;;;;;;;;;9.80;61.80;;;8.52;63.70;100494.13;12241487;19;19933;-84
2023/12/20 08:55:26;;;;;;;;;;;9.80;61.80;;;8.47;63.54;100483.13;12242978;19;19915;-84
2023/12/20 08:59:28;;;;;;;;;;;9.90;61.90;;;8.44;63.51;100459.84;12243461;19;19935;-84
2023/12/20 09:03:29;;;;;;;;;;;9.90;61.90;;;8.55;63.48;100476.59;12245227;19;19922;-84
2023/12/20 09:07:31;;;;;;;;;;;9.90;62.00;;;8.57;63.43;100481.75;12244284;19;20362;-83
2023/12/20 09:11:33;;;;;;;;;;;9.90;61.90;;;8.50;63.59;100459.53;12242894;19;19915;-83
2023/12/20 09:15:35;;;;;;;;;;;10.00;62.00;;;8.61;63.48;100476.31;12243503;19;19915;-84
2023/12/20 09:19:36;;;;;;;;;;;10.00;62.10;;;8.65;63.49;100474.38;12244484;19;19978;-83
2023/12/20 09:23:38;;;;;;;;;;;10.00;62.00;;;8.57;63.81;100469.56;12243313;19;19919;-84
2023/12/20 09:27:40;;;;;;;;;;;10.00;62.00;;;8.45;63.68;100433.75;12243635;19;19915;-84
2023/12/20 09:31:43;;;;;;;;;;;10.00;62.00;;;8.66;63.65;100460.44;12241724;19;19915;-84
2023/12/20 09:35:45;;;;;;;;;;;10.10;62.10;;;8.51;63.71;100419.59;12248269;19;19935;-83
2023/12/20 09:39:46;;;;;;;;;;;10.10;62.00;;;8.68;63.64;100458.59;12254144;19;19911;-84
2023/12/20 09:43:48;;;;;;;;;;;10.10;62.00;;;8.73;63.78;100445.34;12253142;19;19915;-84
2023/12/20 09:47:52;;;;;;;;;;;10.10;62.00;;;8.74;63.67;100445.25;12255879;19;19911;-83
2023/12/20 09:51:54;;;;;;;;;;;10.10;61.90;;;8.74;63.54;100452.22;12251354;19;19911;-84
2023/12/20 09:55:59;;;;;;;;;;;10.10;61.90;;;8.74;63.50;100436.63;12253937;19;19945;-84
2023/12/20 10:00:00;;;;;;;;;;;10.10;61.90;;;8.72;63.79;100420.22;12253383;19;19950;-84
2023/12/20 10:04:08;;;;;;;;;;;10.20;62.00;;;8.76;63.54;100420.00;12251554;19;19923;-84
2023/12/20 10:08:10;;;;;;;;;;;10.30;62.10;;;8.71;63.52;100397.72;12254234;19;19957;-84
2023/12/20 10:12:11;;;;;;;;;;;10.20;62.00;;;8.79;63.60;100405.97;12249935;19;19926;-83
2023/12/20 10:16:13;;;;;;;;;;;10.30;62.00;;;8.85;63.79;100403.88;12252622;19;19923;-84
2023/12/20 10:20:15;;;;;;;;;;;10.30;61.90;;;8.86;63.69;100397.75;12251925;19;19929;-83
2023/12/20 10:24:17;;;;;;;;;;;10.20;61.90;;;8.90;63.71;100385.41;12252382;19;19918;-83
2023/12/20 10:28:23;;;;;;;;;;;10.30;61.80;;;8.84;63.63;100381.38;12253505;19;19923;-83
2023/12/20 10:32:26;;;;;;;;;;;10.30;61.90;;;8.95;63.63;100382.56;12246995;19;19911;-83
2023/12/20 10:36:32;;;;;;;;;;;10.30;61.80;;;8.99;63.61;100373.66;12252781;19;19982;-83
2023/12/20 10:40:36;;;;;;;;;;;10.40;61.80;;;8.97;63.55;100380.72;12250239;19;19915;-83
2023/12/20 10:44:38;;;;;;;;;;;10.40;61.70;;;8.93;63.67;100358.38;12253223;19;19919;-83
2023/12/20 10:48:40;;;;;;;;;;;10.40;61.60;;;8.94;63.74;100349.63;12250968;19;19910;-83
2023/12/20 10:52:42;;;;;;;;;;;10.40;61.60;;;8.99;63.54;100342.41;12245983;19;19918;-83
2023/12/20 10:56:45;;;;;;;;;;;10.40;61.50;;;8.98;63.81;100323.34;12250238;19;19919;-83
2023/12/20 11:00:47;;;;;;;;;;;10.40;61.60;;;9.09;63.54;100343.56;12249499;19;19923;-83
2023/12/20 11:05:36;;;;;;;;;;;10.40;61.50;;;9.12;63.76;100343.41;12250529;19;19918;-82
2023/12/20 11:09:42;;;;;;;;;;;10.50;61.70;;;9.17;63.73;100335.34;12246813;19;19918;-83
2023/12/20 11:13:53;;;;;;;;;;;10.50;61.70;;;9.17;63.74;100319.72;12250631;19;19915;-85
2023/12/20 11:17:56;;;;;;;;;;;10.60;61.70;;;9.24;63.80;100324.50;12249520;19;19926;-83
2023/12/20 11:21:58;;;;;;;;;;;10.60;61.60;;;9.27;63.72;100315.66;12247914;19;19952;-83
2023/12/20 11:26:01;;;;;;;;;;;10.60;61.60;;;9.30;63.58;100310.28;12249720;19;19910;-83
2023/12/20 11:30:08;;;;;;;;;;;10.70;61.60;;;9.31;63.75;100302.38;12249256;19;19914;-84
2023/12/20 11:34:16;;;;;;;;;;;10.70;61.40;;;9.20;63.68;100273.47;12248456;19;19922;-83
2023/12/20 11:38:20;;;;;;;;;;;10.70;61.20;;;9.09;63.60;100239.38;12249266;19;20331;-83
2023/12/20 11:42:22;;;;;;;;;;;10.70;61.20;;;9.33;63.69;100278.84;12244960;19;20603;-83
2023/12/20 11:46:24;;;;;;;;;;;10.70;61.20;;;9.26;63.70;100267.94;12249353;19;20316;-84
2023/12/20 11:50:26;;;;;;;;;;;10.70;61.20;;;9.26;63.54;100252.31;12239860;19;19922;-84
2023/12/20 11:54:27;;;;;;;;;;;10.80;61.10;;;9.36;63.66;100243.94;12248023;19;19943;-84
2023/12/20 11:58:29;;;;;;;;;;;10.80;61.20;;;9.26;63.72;100228.00;12245667;19;20319;-84
2023/12/20 12:02:30;;;;;;;;;;;10.80;61.10;;;9.15;63.73;100209.53;12241165;19;19914;-84
2023/12/20 12:06:33;;;;;;;;;;;10.70;60.90;;;9.30;63.64;100232.94;12248237;19;19926;-84
2023/12/20 12:10:34;;;;;;;;;;;10.70;60.90;;;9.16;63.62;100204.25;12245262;19;19946;-84
2023/12/20 12:14:36;;;;;;;;;;;10.70;61.00;;;9.28;63.62;100213.94;12245241;19;19973;-87
2023/12/20 12:18:41;;;;;;;;;;;10.70;61.00;;;9.30;63.49;100208.66;12246674;19;20338;-84
2023/12/20 12:22:43;;;;;;;;;;;10.70;60.90;;;9.27;63.69;100183.63;12243559;19;19922;-83
2023/12/20 12:26:50;;;;;;;;;;;10.70;61.00;;;9.08;63.70;100149.16;12247692;19;19936;-84
2023/12/20 12:30:58;;;;;;;;;;;10.70;61.00;;;9.31;63.62;100161.66;12246364;19;20293;-83
2023/12/20 12:35:00;;;;;;;;;;;10.70;61.00;;;9.23;63.59;100143.03;12245652;19;19919;-85
2023/12/20 12:39:05;;;;;;;;;;;10.70;61.00;;;9.05;63.63;100113.72;12247734;19;19915;-84
2023/12/20 12:43:06;;;;;;;;;;;10.70;60.90;;;9.31;63.73;100134.78;12245096;19;20263;-86
2023/12/20 12:47:08;;;;;;;;;;;10.70;60.90;;;9.32;63.60;100141.69;12247005;19;19918;-84
2023/12/20 12:51:13;;;;;;;;;;;10.70;61.00;;;9.35;63.81;100135.44;12241046;19;19946;-84
2023/12/20 12:55:14;;;;;;;;;;;10.70;61.10;;;9.28;63.65;100114.94;12244645;19;20395;-84
2023/12/20 12:59:16;;;;;;;;;;;10.70;60.80;;;9.20;63.66;100101.53;12244476;19;19925;-84
2023/12/20 13:03:18;;;;;;;;;;;10.70;60.90;;;9.22;63.73;100106.69;12242052;19;19948;-84
2023/12/20 13:07:19;;;;;;;;;;;10.70;61.00;;;9.09;63.96;100072.69;12244370;19;20294;-85
2023/12/20 13:11:21;;;;;;;;;;;10.80;61.10;;;9.29;63.60;100100.19;12244044;19;19936;-86
2023/12/20 13:15:22;;;;;;;;;;;10.60;61.20;;;9.17;63.67;100085.28;12257358;19;19915;-84
2023/12/20 13:19:24;;;;;;;;;;;10.70;61.30;;;9.15;63.56;100081.91;12255685;19;19919;-85
2023/12/20 13:23:26;;;;;;;;;;;10.70;61.40;;;9.26;63.55;100109.00;12255217;19;19990;-83
2023/12/20 13:27:27;;;;;;;;;;;10.60;61.40;;;9.23;63.65;100103.13;12255117;19;20295;-84
2023/12/20 13:31:30;;;;;;;;;;;10.60;61.50;;;9.17;63.61;100098.28;12251441;19;20345;-83
2023/12/20 13:35:32;;;;;;;;;;;10.60;61.50;;;9.22;63.49;100122.31;12256332;19;19927;-81
2023/12/20 13:39:34;;;;;;;;;;;10.60;61.50;;;9.18;63.54;100139.03;12255035;19;19923;-83
2023/12/20 13:43:35;;;;;;;;;;;10.60;61.60;;;9.09;63.55;100161.25;12256122;19;20380;-84
2023/12/20 13:47:37;;;;;;;;;;;10.70;62.00;;;9.07;63.57;100178.72;12253258;19;19926;-84
2023/12/20 13:51:38;;;;;;;;;;;10.50;61.80;;;9.03;63.47;100169.44;12251116;19;19910;-84
2023/12/20 13:55:40;;;;;;;;;;;10.50;61.80;;;8.99;63.59;100179.19;12254667;19;19922;-84
2023/12/20 13:59:42;;;;;;;;;;;10.50;61.80;;;8.73;63.67;100110.38;12252334;19;19922;-87
2023/12/20 14:03:44;;;;;;;;;;;10.40;61.70;;;9.00;63.58;100156.59;12254339;19;19915;-85
2023/12/20 14:07:46;;;;;;;;;;;10.40;61.80;;;8.86;63.73;100134.78;12254758;19;20334;-84
2023/12/20 14:11:47;;;;;;;;;;;10.30;61.50;;;8.97;63.65;100161.97;12252505;19;20349;-84
2023/12/20 14:15:49;;;;;;;;;;;10.30;61.50;;;8.59;63.55;100118.16;12252590;19;19919;-84
2023/12/20 14:19:51;;;;;;;;;;;10.30;61.30;;;8.90;63.54;100186.69;12253558;19;19919;-83
2023/12/20 14:23:53;;;;;;;;;;;10.20;61.10;;;8.86;63.57;100191.22;12251469;19;19919;-84
2023/12/20 14:27:54;;;;;;;;;;;10.20;61.10;;;8.77;63.36;100210.78;12254441;19;19974;-84
2023/12/20 14:31:56;;;;;;;;;;;10.10;60.80;;;8.64;63.40;100204.59;12250564;19;20261;-84
2023/12/20 14:35:57;;;;;;;;;;;10.10;60.70;;;8.36;63.48;100174.03;12254743;19;19918;-84
2023/12/20 14:39:58;;;;;;;;;;;10.00;60.70;;;8.59;63.59;100217.03;12251183;19;19927;-84
2023/12/20 14:44:00;;;;;;;;;;;10.00;60.70;;;8.55;63.54;100225.94;12253045;19;19923;-84
2023/12/20 14:48:02;;;;;;;;;;;9.90;60.70;;;8.53;63.58;100227.75;12253417;19;19922;-84
2023/12/20 14:52:04;;;;;;;;;;;9.90;60.70;;;8.40;63.38;100209.41;12248494;19;19950;-84
2023/12/20 14:56:06;;;;;;;;;;;9.80;60.70;;;8.33;63.45;100208.84;12251010;19;19919;-84
2023/12/20 15:00:08;;;;;;;;;;;9.80;60.90;;;8.47;63.41;100235.91;12248550;19;19919;-84
2023/12/20 15:04:09;;;;;;;;;;;9.80;60.80;;;8.19;63.38;100196.59;12250521;19;19923;-84
2023/12/20 15:08:11;;;;;;;;;;;9.70;60.80;;;8.40;63.37;100228.44;12248643;19;20599;-85
2023/12/20 15:12:12;;;;;;;;;;;9.70;60.90;;;8.26;63.35;100204.88;12246373;19;19918;-84
2023/12/20 15:16:14;;;;;;;;;;;9.70;60.90;;;8.36;63.57;100237.28;12249215;19;19929;-84
2023/12/20 15:20:15;;;;;;;;;;;9.70;60.90;;;8.24;63.62;100219.75;12248601;19;20247;-84
2023/12/20 15:24:19;;;;;;;;;;;9.70;60.90;;;8.18;63.50;100222.66;12249984;19;19914;-84
2023/12/20 15:28:20;;;;;;;;;;;9.60;60.80;;;8.25;63.55;100236.22;12246282;19;19919;-84
2023/12/20 15:32:22;;;;;;;;;;;9.60;61.00;;;7.95;63.67;100193.53;12246053;19;19927;-84
2023/12/20 15:36:23;;;;;;;;;;;9.70;61.10;;;8.17;63.44;100223.59;12248258;19;19940;-84
2023/12/20 15:40:25;;;;;;;;;;;9.60;61.00;;;8.22;63.66;100229.41;12245802;19;19930;-84
2023/12/20 15:44:26;;;;;;;;;;;9.60;61.10;;;8.07;63.53;100212.84;12249282;19;19947;-84
2023/12/20 15:48:29;;;;;;;;;;;9.60;61.10;;;8.10;63.42;100222.25;12248741;19;19911;-84
2023/12/20 15:52:30;;;;;;;;;;;9.60;61.10;;;8.12;63.54;100234.25;12245513;19;20254;-85
2023/12/20 15:56:33;;;;;;;;;;;9.50;61.00;;;8.17;63.53;100260.00;12247400;19;20346;-84
2023/12/20 16:00:34;;;;;;;;;;;9.50;61.00;;;7.93;63.39;100226.56;12248256;19;19923;-85
2023/12/20 16:04:35;;;;;;;;;;;9.50;60.90;;;8.09;63.48;100262.19;12246829;19;19970;-85
2023/12/20 16:08:37;;;;;;;;;;;9.50;60.90;;;8.11;63.43;100265.56;12248942;19;19923;-84
2023/12/20 16:12:39;;;;;;;;;;;9.50;60.80;;;8.10;63.44;100263.84;12244191;19;20338;-85
2023/12/20 16:16:44;;;;;;;;;;;9.40;60.80;;;8.06;63.61;100249.34;12242868;19;20215;-84
2023/12/20 16:20:45;;;;;;;;;;;9.40;60.80;;;8.05;63.64;100258.06;12246754;19;19971;-84
2023/12/20 16:24:47;;;;;;;;;;;9.40;60.80;;;8.06;63.61;100273.59;12247676;19;19907;-85
2023/12/20 16:28:49;;;;;;;;;;;9.40;60.70;;;8.01;63.44;100266.94;12248270;19;19950;-85
2023/12/20 16:32:50;;;;;;;;;;;9.60;60.90;;;8.00;63.60;100278.28;12244544;19;20416;-85
2023/12/20 16:36:54;;;;;;;;;;;9.40;60.70;;;7.90;63.50;100263.13;12249015;19;19949;-85
2023/12/20 16:40:55;;;;;;;;;;;9.40;60.70;;;7.58;63.39;100219.75;12244826;19;19931;-85
2023/12/20 16:44:56;;;;;;;;;;;9.40;60.70;;;7.79;63.42;100255.03;12244308;19;20361;-84
2023/12/20 16:48:58;;;;;;;;;;;9.40;60.70;;;7.99;63.42;100287.81;12245600;19;19918;-84
2023/12/20 16:52:59;;;;;;;;;;;9.40;60.70;;;7.98;63.63;100284.38;12244933;19;19919;-85
2023/12/20 16:57:01;;;;;;;;;;;9.30;60.50;;;7.91;63.53;100266.56;12246783;19;19923;-85
2023/12/20 17:01:02;;;;;;;;;;;9.30;60.50;;;7.94;63.37;100266.44;12244888;19;20313;-84
2023/12/20 17:05:04;;;;;;;;;;;9.30;60.50;;;7.83;63.49;100266.13;12245586;19;19940;-85
2023/12/20 17:09:07;;;;;;;;;;;9.30;60.40;;;7.63;63.63;100235.97;12247048;19;19934;-84
2023/12/20 17:13:09;;;;;;;;;;;9.30;60.50;;;7.88;63.57;100270.16;12243151;19;19919;-84
2023/12/20 17:17:11;;;;;;;;;;;9.30;60.50;;;7.88;63.63;100280.56;12248187;19;19927;-84
2023/12/20 17:21:13;;;;;;;;;;;9.30;60.50;;;7.84;63.33;100268.66;12243646;19;19944;-84
2023/12/20 17:25:16;;;;;;;;;;;9.30;60.50;;;7.88;63.34;100270.16;12242825;19;19923;-84
2023/12/20 17:29:18;;;;;;;;;;;9.30;60.50;;;7.89;63.37;100276.22;12244963;19;19917;-84
2023/12/20 17:33:19;;;;;;;;;;;9.30;60.50;;;7.92;63.57;100276.91;12239288;19;19959;-84
2023/12/20 17:37:21;;;;;;;;;;;9.30;60.60;;;7.86;63.53;100259.03;12242544;19;19917;-84
2023/12/20 17:41:22;;;;;;;;;;;9.50;60.80;;;7.82;63.56;100260.09;12239008;19;19978;-84
2023/12/20 17:45:24;;;;;;;;;;;9.20;60.50;;;7.71;63.47;100239.00;12244027;19;19990;-84
2023/12/20 17:49:26;;;;;;;;;;;9.30;60.60;;;7.72;63.26;100245.88;12242567;19;19982;-84
2023/12/20 17:53:27;;;;;;;;;;;9.30;60.60;;;7.92;63.60;100283.88;12240155;19;19923;-84
2023/12/20 17:57:28;;;;;;;;;;;9.40;60.80;;;7.82;63.56;100247.09;12249735;19;20002;-84
2023/12/20 18:01:30;;;;;;;;;;;9.30;60.80;;;7.67;63.63;100214.06;12249484;19;19922;-84
2023/12/20 18:05:31;;;;;;;;;;;9.30;60.80;;;7.96;63.45;100270.59;12253056;19;19927;-83
2023/12/20 18:09:32;;;;;;;;;;;9.40;60.90;;;7.98;63.51;100276.56;12254101;19;19914;-84
2023/12/20 18:13:34;;;;;;;;;;;9.60;61.10;;;7.94;63.64;100277.66;12249848;19;19919;-85
2023/12/20 18:17:35;;;;;;;;;;;9.40;60.90;;;7.84;63.50;100262.63;12254307;19;19947;-83
2023/12/20 18:21:36;;;;;;;;;;;9.40;60.80;;;8.05;63.52;100289.28;12249783;19;19907;-83
2023/12/20 18:25:38;;;;;;;;;;;9.40;60.80;;;8.05;63.45;100287.50;12252014;19;19914;-84